Flight Track Log - Related Links

Times and Time Zones

All times are in EDT time to prevent confusion due to time zone crossing. See the SAA347 flight status page for this flight to view local times or setup timezone preferences in your user account.

Time Position Orientation Groundspeed Altitude Reporting Facility
EDT Latitude Longitude Course Direction KTS MPH feet Rate Location/Type
Thu 09:24:32 AM -27.3672 26.8793 225° Southwest  Level Estimated
Thu 09:25:32 AM -27.4512 26.7842 225° Southwest  Level Estimated
Thu 09:26:32 AM -27.5352 26.6889 225° Southwest  Level Estimated
Thu 09:27:32 AM -27.6191 26.5935 225° Southwest  Level Estimated
Thu 09:28:32 AM -27.7029 26.4979 225° Southwest  Level Estimated
Thu 09:29:32 AM -27.7866 26.4022 225° Southwest  Level Estimated
Thu 09:30:32 AM -27.8703 26.3063 225° Southwest  Level Estimated
Thu 09:31:32 AM -27.9539 26.2103 225° Southwest  Level Estimated
Thu 09:32:32 AM -28.0375 26.1141 225° Southwest  Level Estimated
Thu 09:33:32 AM -28.1210 26.0178 226° Southwest  Level Estimated
Thu 09:34:32 AM -28.2044 25.9214 226° Southwest  Level Estimated
Thu 09:35:32 AM -28.2877 25.8247 226° Southwest  Level Estimated
Thu 09:36:32 AM -28.3710 25.7280 226° Southwest  Level Estimated
Thu 09:37:32 AM -28.4542 25.6311 226° Southwest  Level Estimated
Thu 09:38:32 AM -28.5374 25.5340 226° Southwest  Level Estimated
Thu 09:39:32 AM -28.6204 25.4368 226° Southwest  Level Estimated
Thu 09:40:32 AM -28.7034 25.3394 226° Southwest  Level Estimated
Thu 09:41:32 AM -28.7864 25.2418 226° Southwest  Level Estimated
Thu 09:42:32 AM -28.8692 25.1442 226° Southwest  Level Estimated
Thu 09:43:32 AM -28.9520 25.0463 226° Southwest  Level Estimated
Thu 09:44:32 AM -29.0348 24.9483 226° Southwest  Level Estimated
Thu 09:45:32 AM -29.1174 24.8502 226° Southwest  Level Estimated
Thu 09:46:32 AM -29.2000 24.7519 226° Southwest  Level Estimated
Thu 09:47:32 AM -29.2825 24.6534 226° Southwest  Level Estimated
Thu 09:48:32 AM -29.3649 24.5548 226° Southwest  Level Estimated
Thu 09:49:32 AM -29.4473 24.4560 226° Southwest  Level Estimated
Thu 09:50:32 AM -29.5296 24.3570 226° Southwest  Level Estimated
Thu 09:51:32 AM -29.6118 24.2579 226° Southwest  Level Estimated
Thu 09:52:32 AM -29.6940 24.1586 226° Southwest  Level Estimated
Thu 09:53:32 AM -29.7760 24.0592 226° Southwest  Level Estimated
Thu 09:54:32 AM -29.8580 23.9596 227° Southwest  Level Estimated
Thu 09:55:32 AM -29.9399 23.8598 227° Southwest  Level Estimated
Thu 09:56:32 AM -30.0218 23.7599 227° Southwest  Level Estimated
Thu 09:57:32 AM -30.1035 23.6598 227° Southwest  Level Estimated
Thu 09:58:32 AM -30.1852 23.5595 227° Southwest  Level Estimated
Thu 09:59:32 AM -30.2669 23.4591 227° Southwest  Level Estimated
Thu 10:00:32 AM -30.3484 23.3585 227° Southwest  Level Estimated
Thu 10:01:32 AM -30.4299 23.2577 227° Southwest  Level Estimated
Thu 10:02:32 AM -30.5112 23.1568 227° Southwest  Level Estimated
Thu 10:03:32 AM -30.5926 23.0557 227° Southwest  Level Estimated
Thu 10:04:32 AM -30.6738 22.9545 227° Southwest  Level Estimated
Thu 10:05:32 AM -30.7549 22.8530 227° Southwest  Level Estimated
Thu 10:06:32 AM -30.8360 22.7514 227° Southwest  Level Estimated
Thu 10:07:32 AM -30.9170 22.6496 227° Southwest  Level Estimated
Thu 10:08:32 AM -30.9979 22.5477 227° Southwest  Level Estimated
Thu 10:09:32 AM -31.0787 22.4455 227° Southwest  Level Estimated
Thu 10:10:32 AM -31.1595 22.3432 227° Southwest  Level Estimated
Thu 10:11:32 AM -31.2402 22.2408 227° Southwest  Level Estimated
Thu 10:12:32 AM -31.3207 22.1381 227° Southwest  Level Estimated
Thu 10:13:32 AM -31.4013 22.0353 228° Southwest  Level Estimated
Thu 10:14:32 AM -31.4817 21.9323 228° Southwest  Level Estimated
Thu 10:15:32 AM -31.5620 21.8291 228° Southwest  Level Estimated
Thu 10:16:32 AM -31.6423 21.7258 228° Southwest  Level Estimated
Thu 10:17:32 AM -31.7225 21.6222 228° Southwest  Level Estimated
Thu 10:18:32 AM -31.8025 21.5185 228° Southwest  Level Estimated
Thu 10:19:32 AM -31.8826 21.4146 228° Southwest  Level Estimated
Thu 10:20:32 AM -31.9625 21.3105 228° Southwest  Level Estimated
Thu 10:21:32 AM -32.0423 21.2063 228° Southwest  Level Estimated
Thu 10:22:32 AM -32.1221 21.1018 228° Southwest  Level Estimated
Thu 10:23:32 AM -32.2017 20.9972 228° Southwest  Level Estimated
Thu 10:24:32 AM -32.2813 20.8924 228° Southwest  Level Estimated
Thu 10:25:32 AM -32.3608 20.7874 228° Southwest  Level Estimated
Thu 10:26:32 AM -32.4402 20.6822 228° Southwest  Level Estimated
Thu 10:27:32 AM -32.5195 20.5769 228° Southwest  Level Estimated
Thu 10:28:32 AM -32.5988 20.4713 228° Southwest  Level Estimated
Thu 10:29:32 AM -32.6779 20.3656 228° Southwest  Level Estimated
Thu 10:30:32 AM -32.7570 20.2597 228° Southwest  Level Estimated
Thu 10:31:32 AM -32.8359 20.1536 229° Southwest  Level Estimated
Thu 10:32:32 AM -32.9148 20.0473 229° Southwest  Level Estimated
Thu 10:33:32 AM -32.9936 19.9408 229° Southwest  Level Estimated
Thu 10:34:32 AM -33.0723 19.8341 229° Southwest  Level Estimated
Thu 10:35:32 AM -33.1509 19.7273 229° Southwest  Level Estimated
Thu 10:36:32 AM -33.2294 19.6202 229° Southwest  Level Estimated
Thu 10:37:32 AM -33.3078 19.5130 229° Southwest  Level Estimated
Thu 10:38:32 AM -33.3862 19.4055 229° Southwest  Level Estimated
Thu 10:39:32 AM -33.4644 19.2979 229° Southwest  Level Estimated
Thu 10:40:32 AM -33.5425 19.1901 229° Southwest  Level Estimated
Thu 10:41:32 AM -33.6206 19.0820 229° Southwest  Level Estimated
Thu 10:42:32 AM -33.6985 18.9738 229° Southwest  Level Estimated
Thu 10:43:32 AM -33.7764 18.8654 229° Southwest  Level Estimated
Thu 10:44:32 AM -33.8542 18.7568 229° Southwest  Level Estimated
Thu 10:45:32 AM -33.9318 18.6480 229° Southwest  Level Estimated
Thu 10:46:32 AM -34.0094 18.5389 49° Northeast  Level Estimated
Thu 10:47:32 AM -33.9318 18.6480 229° Southwest  Level Estimated
Thu 10:48:32 AM -34.0094 18.5389 49° Northeast  Level Estimated
Thu 10:49:32 AM -33.9318 18.6480 229° Southwest  Level Estimated
Thu 10:50:32 AM -34.0094 18.5389 49° Northeast  Level Estimated
Thu 10:51:32 AM -33.9318 18.6480 229° Southwest  Level Estimated
Thu 10:52:32 AM -34.0094 18.5389 49° Northeast  Level Estimated
Thu 10:53:32 AM -33.9318 18.6480 229° Southwest  Level Estimated
Thu 10:54:32 AM -34.0094 18.5389 49° Northeast  Level Estimated
Thu 10:55:32 AM -33.9318 18.6480 229° Southwest  Level Estimated
Thu 10:56:32 AM -34.0094 18.5389 49° Northeast  Level Estimated
Thu 10:57:32 AM -33.9318 18.6480 229° Southwest  Level Estimated
Thu 10:58:32 AM -34.0094 18.5389 49° Northeast  Level Estimated
Thu 10:59:32 AM -33.9318 18.6480 229° Southwest  Level Estimated
Thu 11:00:32 AM -34.0094 18.5389 49° Northeast  Level Estimated
Thu 11:01:32 AM -33.9318 18.6480 49° Northeast  Level Estimated

Login

Don't have an account? Register now (free) for customized features, flight alerts, and more!